sensor_id;sensor_type;location;lat;lon;timestamp;temperature;humidity
14053;DHT22;7101;51.600;7.310;2023-08-24T00:00:53;17.50;99.90
14053;DHT22;7101;51.600;7.310;2023-08-24T00:03:20;17.50;99.90
14053;DHT22;7101;51.600;7.310;2023-08-24T00:05:48;17.50;99.90
14053;DHT22;7101;51.600;7.310;2023-08-24T00:08:15;17.60;99.90
14053;DHT22;7101;51.600;7.310;2023-08-24T00:10:44;17.60;99.90
14053;DHT22;7101;51.600;7.310;2023-08-24T00:13:12;17.50;99.90
14053;DHT22;7101;51.600;7.310;2023-08-24T00:15:39;17.40;99.90
14053;DHT22;7101;51.600;7.310;2023-08-24T00:18:06;17.50;99.90
14053;DHT22;7101;51.600;7.310;2023-08-24T00:20:34;17.50;99.90
14053;DHT22;7101;51.600;7.310;2023-08-24T00:23:04;17.50;99.90
14053;DHT22;7101;51.600;7.310;2023-08-24T00:25:31;17.40;99.90
14053;DHT22;7101;51.600;7.310;2023-08-24T00:27:59;17.30;99.90
14053;DHT22;7101;51.600;7.310;2023-08-24T00:30:26;17.20;99.90
14053;DHT22;7101;51.600;7.310;2023-08-24T00:32:54;17.20;99.90
14053;DHT22;7101;51.600;7.310;2023-08-24T00:35:21;17.10;99.90
14053;DHT22;7101;51.600;7.310;2023-08-24T00:37:49;17.10;99.90
14053;DHT22;7101;51.600;7.310;2023-08-24T00:40:16;17.10;99.90
14053;DHT22;7101;51.600;7.310;2023-08-24T00:42:44;17.00;99.90
14053;DHT22;7101;51.600;7.310;2023-08-24T00:45:13;17.00;99.90
14053;DHT22;7101;51.600;7.310;2023-08-24T00:47:42;16.90;99.90
14053;DHT22;7101;51.600;7.310;2023-08-24T00:50:10;16.90;99.90
14053;DHT22;7101;51.600;7.310;2023-08-24T00:52:38;17.00;99.90
14053;DHT22;7101;51.600;7.310;2023-08-24T00:55:07;17.00;99.90
14053;DHT22;7101;51.600;7.310;2023-08-24T00:57:35;16.90;99.90
14053;DHT22;7101;51.600;7.310;2023-08-24T01:00:05;16.80;99.90
14053;DHT22;7101;51.600;7.310;2023-08-24T01:02:35;16.70;99.90
14053;DHT22;7101;51.600;7.310;2023-08-24T01:05:03;16.60;99.90
14053;DHT22;7101;51.600;7.310;2023-08-24T01:07:31;16.70;99.90
14053;DHT22;7101;51.600;7.310;2023-08-24T01:13:27;16.60;99.90
14053;DHT22;7101;51.600;7.310;2023-08-24T01:16:02;16.60;99.90
14053;DHT22;7101;51.600;7.310;2023-08-24T01:18:34;16.60;99.90
14053;DHT22;7101;51.600;7.310;2023-08-24T01:21:04;16.50;99.90
14053;DHT22;7101;51.600;7.310;2023-08-24T01:23:43;16.40;99.90
14053;DHT22;7101;51.600;7.310;2023-08-24T01:26:16;16.40;99.90
14053;DHT22;7101;51.600;7.310;2023-08-24T01:28:45;16.40;99.90
14053;DHT22;7101;51.600;7.310;2023-08-24T01:31:13;16.40;99.90
14053;DHT22;7101;51.600;7.310;2023-08-24T01:33:41;16.30;99.90
14053;DHT22;7101;51.600;7.310;2023-08-24T01:36:12;16.30;99.90
14053;DHT22;7101;51.600;7.310;2023-08-24T01:38:41;16.20;99.90
14053;DHT22;7101;51.600;7.310;2023-08-24T01:41:12;16.10;99.90
14053;DHT22;7101;51.600;7.310;2023-08-24T01:43:45;16.10;99.90
14053;DHT22;7101;51.600;7.310;2023-08-24T01:46:14;16.20;99.90
14053;DHT22;7101;51.600;7.310;2023-08-24T01:48:43;16.30;99.90
14053;DHT22;7101;51.600;7.310;2023-08-24T01:51:10;16.20;99.90
14053;DHT22;7101;51.600;7.310;2023-08-24T01:53:38;16.20;99.90
14053;DHT22;7101;51.600;7.310;2023-08-24T01:56:08;16.20;99.90
14053;DHT22;7101;51.600;7.310;2023-08-24T01:58:36;16.30;99.90
14053;DHT22;7101;51.600;7.310;2023-08-24T02:01:04;16.30;99.90
14053;DHT22;7101;51.600;7.310;2023-08-24T02:03:32;16.30;99.90
14053;DHT22;7101;51.600;7.310;2023-08-24T02:05:59;16.20;99.90
14053;DHT22;7101;51.600;7.310;2023-08-24T02:08:26;16.10;99.90
14053;DHT22;7101;51.600;7.310;2023-08-24T02:10:53;16.10;99.90
14053;DHT22;7101;51.600;7.310;2023-08-24T02:13:20;16.10;99.90
14053;DHT22;7101;51.600;7.310;2023-08-24T02:15:47;16.20;99.90
14053;DHT22;7101;51.600;7.310;2023-08-24T02:18:15;16.30;99.90
14053;DHT22;7101;51.600;7.310;2023-08-24T02:20:42;16.30;99.90
14053;DHT22;7101;51.600;7.310;2023-08-24T02:23:09;16.30;99.90
14053;DHT22;7101;51.600;7.310;2023-08-24T02:25:41;16.40;99.90
14053;DHT22;7101;51.600;7.310;2023-08-24T02:28:08;16.30;99.90
14053;DHT22;7101;51.600;7.310;2023-08-24T02:30:37;16.30;99.90
14053;DHT22;7101;51.600;7.310;2023-08-24T02:33:04;16.30;99.90
14053;DHT22;7101;51.600;7.310;2023-08-24T02:35:32;16.20;99.90
14053;DHT22;7101;51.600;7.310;2023-08-24T02:37:59;16.10;99.90
14053;DHT22;7101;51.600;7.310;2023-08-24T02:40:26;16.00;99.90
14053;DHT22;7101;51.600;7.310;2023-08-24T02:42:53;16.00;99.90
14053;DHT22;7101;51.600;7.310;2023-08-24T02:45:19;16.00;99.90
14053;DHT22;7101;51.600;7.310;2023-08-24T02:47:46;16.00;99.90
14053;DHT22;7101;51.600;7.310;2023-08-24T02:50:13;16.00;99.90
14053;DHT22;7101;51.600;7.310;2023-08-24T02:52:41;16.10;99.90
14053;DHT22;7101;51.600;7.310;2023-08-24T02:55:09;16.00;99.90
14053;DHT22;7101;51.600;7.310;2023-08-24T02:57:37;16.00;99.90
14053;DHT22;7101;51.600;7.310;2023-08-24T03:00:07;16.00;99.90
14053;DHT22;7101;51.600;7.310;2023-08-24T03:02:35;16.10;99.90
14053;DHT22;7101;51.600;7.310;2023-08-24T03:05:02;16.10;99.90
14053;DHT22;7101;51.600;7.310;2023-08-24T03:07:30;16.20;99.90
14053;DHT22;7101;51.600;7.310;2023-08-24T03:09:59;16.20;99.90
14053;DHT22;7101;51.600;7.310;2023-08-24T03:12:26;16.30;99.90
14053;DHT22;7101;51.600;7.310;2023-08-24T03:14:52;16.40;99.90
14053;DHT22;7101;51.600;7.310;2023-08-24T03:17:20;16.50;99.90
14053;DHT22;7101;51.600;7.310;2023-08-24T03:19:48;16.50;99.90
14053;DHT22;7101;51.600;7.310;2023-08-24T03:22:15;16.60;99.90
14053;DHT22;7101;51.600;7.310;2023-08-24T03:24:43;16.60;99.90
14053;DHT22;7101;51.600;7.310;2023-08-24T03:27:11;16.60;99.90
14053;DHT22;7101;51.600;7.310;2023-08-24T03:29:38;16.60;99.90
14053;DHT22;7101;51.600;7.310;2023-08-24T03:32:04;16.60;99.90
14053;DHT22;7101;51.600;7.310;2023-08-24T03:34:31;16.60;99.90
14053;DHT22;7101;51.600;7.310;2023-08-24T03:36:58;16.70;99.90
14053;DHT22;7101;51.600;7.310;2023-08-24T03:39:25;16.80;99.90
14053;DHT22;7101;51.600;7.310;2023-08-24T03:41:52;16.80;99.90
14053;DHT22;7101;51.600;7.310;2023-08-24T03:44:20;16.90;99.90
14053;DHT22;7101;51.600;7.310;2023-08-24T03:46:48;16.90;99.90
14053;DHT22;7101;51.600;7.310;2023-08-24T03:49:14;16.90;99.90
14053;DHT22;7101;51.600;7.310;2023-08-24T03:51:42;16.80;99.90
14053;DHT22;7101;51.600;7.310;2023-08-24T03:54:08;16.80;99.90
14053;DHT22;7101;51.600;7.310;2023-08-24T03:56:35;16.80;99.90
14053;DHT22;7101;51.600;7.310;2023-08-24T03:59:02;16.90;99.90
14053;DHT22;7101;51.600;7.310;2023-08-24T04:01:31;16.90;99.90
14053;DHT22;7101;51.600;7.310;2023-08-24T04:03:59;17.00;99.90
14053;DHT22;7101;51.600;7.310;2023-08-24T04:06:25;17.10;99.90
14053;DHT22;7101;51.600;7.310;2023-08-24T04:08:52;17.00;99.90
14053;DHT22;7101;51.600;7.310;2023-08-24T04:11:19;17.10;99.90
14053;DHT22;7101;51.600;7.310;2023-08-24T04:13:46;17.20;99.90
14053;DHT22;7101;51.600;7.310;2023-08-24T04:16:13;17.10;99.90
14053;DHT22;7101;51.600;7.310;2023-08-24T04:18:41;17.20;99.90
14053;DHT22;7101;51.600;7.310;2023-08-24T04:21:08;17.20;99.90
14053;DHT22;7101;51.600;7.310;2023-08-24T04:23:35;17.20;99.90
14053;DHT22;7101;51.600;7.310;2023-08-24T04:26:03;17.20;99.90
14053;DHT22;7101;51.600;7.310;2023-08-24T04:28:30;17.30;99.90
14053;DHT22;7101;51.600;7.310;2023-08-24T04:30:57;17.30;99.90
14053;DHT22;7101;51.600;7.310;2023-08-24T04:33:24;17.20;99.90
14053;DHT22;7101;51.600;7.310;2023-08-24T04:35:52;17.30;99.90
14053;DHT22;7101;51.600;7.310;2023-08-24T04:38:20;17.30;99.90
14053;DHT22;7101;51.600;7.310;2023-08-24T04:40:53;17.30;99.90
14053;DHT22;7101;51.600;7.310;2023-08-24T04:43:23;17.30;99.90
14053;DHT22;7101;51.600;7.310;2023-08-24T04:45:52;17.20;99.90
14053;DHT22;7101;51.600;7.310;2023-08-24T04:48:24;17.10;99.90
14053;DHT22;7101;51.600;7.310;2023-08-24T04:50:52;17.00;99.90
14053;DHT22;7101;51.600;7.310;2023-08-24T04:53:21;17.00;99.90
14053;DHT22;7101;51.600;7.310;2023-08-24T04:55:48;17.00;99.90
14053;DHT22;7101;51.600;7.310;2023-08-24T04:58:24;16.90;99.90
14053;DHT22;7101;51.600;7.310;2023-08-24T05:00:52;16.80;99.90
14053;DHT22;7101;51.600;7.310;2023-08-24T05:03:19;16.80;99.90
14053;DHT22;7101;51.600;7.310;2023-08-24T05:05:47;16.70;99.90
14053;DHT22;7101;51.600;7.310;2023-08-24T05:08:15;16.80;99.90
14053;DHT22;7101;51.600;7.310;2023-08-24T05:10:43;16.70;99.90
14053;DHT22;7101;51.600;7.310;2023-08-24T05:13:09;16.70;99.90
14053;DHT22;7101;51.600;7.310;2023-08-24T05:15:37;16.80;99.90
14053;DHT22;7101;51.600;7.310;2023-08-24T05:18:11;16.80;99.90
14053;DHT22;7101;51.600;7.310;2023-08-24T05:20:38;16.80;99.90
14053;DHT22;7101;51.600;7.310;2023-08-24T05:23:05;16.80;99.90
14053;DHT22;7101;51.600;7.310;2023-08-24T05:25:36;16.80;99.90
14053;DHT22;7101;51.600;7.310;2023-08-24T05:28:03;16.80;99.90
14053;DHT22;7101;51.600;7.310;2023-08-24T05:30:30;16.80;99.90
14053;DHT22;7101;51.600;7.310;2023-08-24T05:32:57;16.90;99.90
14053;DHT22;7101;51.600;7.310;2023-08-24T05:35:24;16.90;99.90
14053;DHT22;7101;51.600;7.310;2023-08-24T05:37:53;16.90;99.90
14053;DHT22;7101;51.600;7.310;2023-08-24T05:40:19;17.00;99.90
14053;DHT22;7101;51.600;7.310;2023-08-24T05:42:48;17.10;99.90
14053;DHT22;7101;51.600;7.310;2023-08-24T05:45:15;17.10;99.90
14053;DHT22;7101;51.600;7.310;2023-08-24T05:47:41;17.20;99.90
14053;DHT22;7101;51.600;7.310;2023-08-24T05:50:08;17.20;99.90
14053;DHT22;7101;51.600;7.310;2023-08-24T05:52:37;17.30;99.90
14053;DHT22;7101;51.600;7.310;2023-08-24T05:55:04;17.30;99.90
14053;DHT22;7101;51.600;7.310;2023-08-24T05:57:31;17.30;99.90
14053;DHT22;7101;51.600;7.310;2023-08-24T06:00:00;17.40;99.90
14053;DHT22;7101;51.600;7.310;2023-08-24T06:02:27;17.40;99.90
14053;DHT22;7101;51.600;7.310;2023-08-24T06:04:53;17.50;99.90
14053;DHT22;7101;51.600;7.310;2023-08-24T06:07:20;17.50;99.90
14053;DHT22;7101;51.600;7.310;2023-08-24T06:09:48;17.50;99.90
14053;DHT22;7101;51.600;7.310;2023-08-24T06:12:15;17.50;99.90
14053;DHT22;7101;51.600;7.310;2023-08-24T06:14:41;17.70;99.90
14053;DHT22;7101;51.600;7.310;2023-08-24T06:17:10;17.70;99.90
14053;DHT22;7101;51.600;7.310;2023-08-24T06:19:36;17.70;99.90
14053;DHT22;7101;51.600;7.310;2023-08-24T06:22:05;17.80;99.90
14053;DHT22;7101;51.600;7.310;2023-08-24T06:24:32;18.00;99.90
14053;DHT22;7101;51.600;7.310;2023-08-24T06:27:00;18.10;99.90
14053;DHT22;7101;51.600;7.310;2023-08-24T06:29:28;18.20;99.90
14053;DHT22;7101;51.600;7.310;2023-08-24T06:31:56;18.60;99.90
14053;DHT22;7101;51.600;7.310;2023-08-24T06:34:24;19.40;99.90
14053;DHT22;7101;51.600;7.310;2023-08-24T06:36:53;19.80;99.90
14053;DHT22;7101;51.600;7.310;2023-08-24T06:39:21;20.20;99.90
14053;DHT22;7101;51.600;7.310;2023-08-24T06:41:50;21.00;99.90
14053;DHT22;7101;51.600;7.310;2023-08-24T06:44:17;21.70;99.90
14053;DHT22;7101;51.600;7.310;2023-08-24T06:46:44;22.40;99.90
14053;DHT22;7101;51.600;7.310;2023-08-24T06:49:12;22.80;99.90
14053;DHT22;7101;51.600;7.310;2023-08-24T06:51:40;23.50;99.90
14053;DHT22;7101;51.600;7.310;2023-08-24T06:54:07;24.20;99.90
14053;DHT22;7101;51.600;7.310;2023-08-24T06:56:33;23.90;99.90
14053;DHT22;7101;51.600;7.310;2023-08-24T06:59:00;23.80;99.90
14053;DHT22;7101;51.600;7.310;2023-08-24T07:01:27;24.00;99.90
14053;DHT22;7101;51.600;7.310;2023-08-24T07:03:54;24.20;99.90
14053;DHT22;7101;51.600;7.310;2023-08-24T07:06:21;24.60;99.90
14053;DHT22;7101;51.600;7.310;2023-08-24T07:08:49;25.20;99.90
14053;DHT22;7101;51.600;7.310;2023-08-24T07:11:16;24.90;99.90
14053;DHT22;7101;51.600;7.310;2023-08-24T07:13:43;25.00;99.90
14053;DHT22;7101;51.600;7.310;2023-08-24T07:16:10;25.10;99.90
14053;DHT22;7101;51.600;7.310;2023-08-24T07:18:37;25.20;99.90
14053;DHT22;7101;51.600;7.310;2023-08-24T07:21:05;25.60;99.90
14053;DHT22;7101;51.600;7.310;2023-08-24T07:23:32;26.00;99.90
14053;DHT22;7101;51.600;7.310;2023-08-24T07:26:00;25.80;99.90
14053;DHT22;7101;51.600;7.310;2023-08-24T07:28:27;25.70;99.90
14053;DHT22;7101;51.600;7.310;2023-08-24T07:30:55;26.30;99.90
14053;DHT22;7101;51.600;7.310;2023-08-24T07:33:22;26.50;99.90
14053;DHT22;7101;51.600;7.310;2023-08-24T07:35:50;26.40;99.90
14053;DHT22;7101;51.600;7.310;2023-08-24T07:38:17;26.60;99.90
14053;DHT22;7101;51.600;7.310;2023-08-24T07:40:43;26.60;99.90
14053;DHT22;7101;51.600;7.310;2023-08-24T07:43:11;26.80;99.90
14053;DHT22;7101;51.600;7.310;2023-08-24T07:45:38;27.00;99.90
14053;DHT22;7101;51.600;7.310;2023-08-24T07:48:06;27.00;99.90
14053;DHT22;7101;51.600;7.310;2023-08-24T07:50:33;27.40;99.90
14053;DHT22;7101;51.600;7.310;2023-08-24T07:53:00;27.80;99.90
14053;DHT22;7101;51.600;7.310;2023-08-24T07:55:27;27.60;99.90
14053;DHT22;7101;51.600;7.310;2023-08-24T07:57:53;27.10;99.90
14053;DHT22;7101;51.600;7.310;2023-08-24T08:00:22;27.00;99.90
14053;DHT22;7101;51.600;7.310;2023-08-24T08:02:50;27.10;99.90
14053;DHT22;7101;51.600;7.310;2023-08-24T08:05:17;27.30;99.90
14053;DHT22;7101;51.600;7.310;2023-08-24T08:07:45;27.80;99.90
14053;DHT22;7101;51.600;7.310;2023-08-24T08:10:11;28.00;99.90
14053;DHT22;7101;51.600;7.310;2023-08-24T08:12:38;27.80;99.90
14053;DHT22;7101;51.600;7.310;2023-08-24T08:15:06;27.60;99.90
14053;DHT22;7101;51.600;7.310;2023-08-24T08:17:34;27.60;99.90
14053;DHT22;7101;51.600;7.310;2023-08-24T08:20:01;27.50;99.90
14053;DHT22;7101;51.600;7.310;2023-08-24T08:22:29;27.80;99.90
14053;DHT22;7101;51.600;7.310;2023-08-24T08:25:01;27.90;99.90
14053;DHT22;7101;51.600;7.310;2023-08-24T08:27:28;28.00;99.90
14053;DHT22;7101;51.600;7.310;2023-08-24T08:29:55;28.20;99.90
14053;DHT22;7101;51.600;7.310;2023-08-24T08:32:22;28.40;99.90
14053;DHT22;7101;51.600;7.310;2023-08-24T08:34:53;28.70;99.90
14053;DHT22;7101;51.600;7.310;2023-08-24T08:37:22;28.30;99.90
14053;DHT22;7101;51.600;7.310;2023-08-24T08:39:49;28.10;99.90
14053;DHT22;7101;51.600;7.310;2023-08-24T08:42:16;28.30;99.90
14053;DHT22;7101;51.600;7.310;2023-08-24T08:44:45;28.20;99.90
14053;DHT22;7101;51.600;7.310;2023-08-24T08:47:13;27.70;99.90
14053;DHT22;7101;51.600;7.310;2023-08-24T08:49:42;27.80;99.90
14053;DHT22;7101;51.600;7.310;2023-08-24T08:52:12;28.00;99.90
14053;DHT22;7101;51.600;7.310;2023-08-24T08:54:41;27.80;99.90
14053;DHT22;7101;51.600;7.310;2023-08-24T08:57:08;27.90;99.90
14053;DHT22;7101;51.600;7.310;2023-08-24T08:59:36;27.90;99.90
14053;DHT22;7101;51.600;7.310;2023-08-24T09:02:04;27.80;99.90
14053;DHT22;7101;51.600;7.310;2023-08-24T09:04:32;27.90;99.90
14053;DHT22;7101;51.600;7.310;2023-08-24T09:07:00;27.90;99.90
14053;DHT22;7101;51.600;7.310;2023-08-24T09:09:32;27.40;99.90
14053;DHT22;7101;51.600;7.310;2023-08-24T09:12:00;27.50;99.90
14053;DHT22;7101;51.600;7.310;2023-08-24T09:14:28;27.70;99.90
14053;DHT22;7101;51.600;7.310;2023-08-24T09:16:55;27.60;99.90
14053;DHT22;7101;51.600;7.310;2023-08-24T09:19:27;27.90;99.90
14053;DHT22;7101;51.600;7.310;2023-08-24T09:21:57;28.00;99.90
14053;DHT22;7101;51.600;7.310;2023-08-24T09:24:30;27.90;99.90
14053;DHT22;7101;51.600;7.310;2023-08-24T09:26:58;27.90;99.90
14053;DHT22;7101;51.600;7.310;2023-08-24T09:29:25;27.50;99.90
14053;DHT22;7101;51.600;7.310;2023-08-24T09:31:56;27.70;99.90
14053;DHT22;7101;51.600;7.310;2023-08-24T09:34:24;27.90;99.90
14053;DHT22;7101;51.600;7.310;2023-08-24T09:36:53;28.10;99.90
14053;DHT22;7101;51.600;7.310;2023-08-24T09:39:20;28.00;99.90
14053;DHT22;7101;51.600;7.310;2023-08-24T09:41:53;28.00;99.90
14053;DHT22;7101;51.600;7.310;2023-08-24T09:44:20;28.20;99.90
14053;DHT22;7101;51.600;7.310;2023-08-24T09:46:46;28.20;99.90
14053;DHT22;7101;51.600;7.310;2023-08-24T09:49:14;28.00;99.90
14053;DHT22;7101;51.600;7.310;2023-08-24T09:51:42;28.00;99.90
14053;DHT22;7101;51.600;7.310;2023-08-24T09:54:10;27.80;99.90
14053;DHT22;7101;51.600;7.310;2023-08-24T09:56:40;27.60;99.90
14053;DHT22;7101;51.600;7.310;2023-08-24T09:59:15;27.80;99.90
14053;DHT22;7101;51.600;7.310;2023-08-24T10:01:46;27.90;99.90
14053;DHT22;7101;51.600;7.310;2023-08-24T10:04:14;28.10;99.90
14053;DHT22;7101;51.600;7.310;2023-08-24T10:06:42;28.30;99.90
14053;DHT22;7101;51.600;7.310;2023-08-24T10:09:14;28.60;99.90
14053;DHT22;7101;51.600;7.310;2023-08-24T10:11:49;28.50;99.90
14053;DHT22;7101;51.600;7.310;2023-08-24T10:14:23;28.40;99.90
14053;DHT22;7101;51.600;7.310;2023-08-24T10:16:53;28.50;99.90
14053;DHT22;7101;51.600;7.310;2023-08-24T10:19:22;28.40;99.90
14053;DHT22;7101;51.600;7.310;2023-08-24T10:21:50;28.30;99.90
14053;DHT22;7101;51.600;7.310;2023-08-24T10:24:18;28.30;99.90
14053;DHT22;7101;51.600;7.310;2023-08-24T10:26:47;28.30;99.90
14053;DHT22;7101;51.600;7.310;2023-08-24T10:29:16;28.20;99.90
14053;DHT22;7101;51.600;7.310;2023-08-24T10:31:44;28.30;99.90
14053;DHT22;7101;51.600;7.310;2023-08-24T10:34:11;28.50;99.90
14053;DHT22;7101;51.600;7.310;2023-08-24T10:36:40;28.80;99.90
14053;DHT22;7101;51.600;7.310;2023-08-24T10:39:07;28.50;99.90
14053;DHT22;7101;51.600;7.310;2023-08-24T10:41:48;28.30;99.90
14053;DHT22;7101;51.600;7.310;2023-08-24T10:44:24;28.30;99.90
14053;DHT22;7101;51.600;7.310;2023-08-24T10:47:13;28.70;99.90
14053;DHT22;7101;51.600;7.310;2023-08-24T10:49:40;28.90;99.90
14053;DHT22;7101;51.600;7.310;2023-08-24T10:52:18;28.70;99.90
14053;DHT22;7101;51.600;7.310;2023-08-24T10:54:45;28.60;99.90
14053;DHT22;7101;51.600;7.310;2023-08-24T10:57:21;28.40;99.90
14053;DHT22;7101;51.600;7.310;2023-08-24T10:59:59;28.20;99.90
14053;DHT22;7101;51.600;7.310;2023-08-24T11:02:28;28.10;99.90
14053;DHT22;7101;51.600;7.310;2023-08-24T11:05:16;28.30;99.90
14053;DHT22;7101;51.600;7.310;2023-08-24T11:07:50;28.40;99.90
14053;DHT22;7101;51.600;7.310;2023-08-24T11:10:18;28.60;99.90
14053;DHT22;7101;51.600;7.310;2023-08-24T11:13:06;28.40;99.90
14053;DHT22;7101;51.600;7.310;2023-08-24T11:15:37;28.70;99.90
14053;DHT22;7101;51.600;7.310;2023-08-24T11:18:23;29.10;99.90
14053;DHT22;7101;51.600;7.310;2023-08-24T11:20:52;29.10;99.90
14053;DHT22;7101;51.600;7.310;2023-08-24T11:23:22;28.90;99.90
14053;DHT22;7101;51.600;7.310;2023-08-24T11:25:51;28.80;99.90
14053;DHT22;7101;51.600;7.310;2023-08-24T11:28:22;28.90;99.90
14053;DHT22;7101;51.600;7.310;2023-08-24T11:30:49;28.90;99.90
14053;DHT22;7101;51.600;7.310;2023-08-24T11:33:18;28.90;99.90
14053;DHT22;7101;51.600;7.310;2023-08-24T11:35:57;29.00;99.90
14053;DHT22;7101;51.600;7.310;2023-08-24T11:38:24;28.80;99.90
14053;DHT22;7101;51.600;7.310;2023-08-24T11:40:51;28.90;99.90
14053;DHT22;7101;51.600;7.310;2023-08-24T11:43:24;29.10;99.90
14053;DHT22;7101;51.600;7.310;2023-08-24T11:45:57;29.20;99.90
14053;DHT22;7101;51.600;7.310;2023-08-24T11:48:24;28.90;99.90
14053;DHT22;7101;51.600;7.310;2023-08-24T11:50:53;28.90;99.90
14053;DHT22;7101;51.600;7.310;2023-08-24T11:53:22;29.00;99.90
14053;DHT22;7101;51.600;7.310;2023-08-24T11:55:52;29.50;99.90
14053;DHT22;7101;51.600;7.310;2023-08-24T11:58:19;29.70;99.90
14053;DHT22;7101;51.600;7.310;2023-08-24T12:00:52;29.60;99.90
14053;DHT22;7101;51.600;7.310;2023-08-24T12:03:22;29.70;99.90
14053;DHT22;7101;51.600;7.310;2023-08-24T12:05:50;29.40;99.90
14053;DHT22;7101;51.600;7.310;2023-08-24T12:08:17;29.10;99.90
14053;DHT22;7101;51.600;7.310;2023-08-24T12:10:45;29.10;99.90
14053;DHT22;7101;51.600;7.310;2023-08-24T12:13:14;29.10;99.90
14053;DHT22;7101;51.600;7.310;2023-08-24T12:15:41;29.30;99.90
14053;DHT22;7101;51.600;7.310;2023-08-24T12:18:12;29.40;99.90
14053;DHT22;7101;51.600;7.310;2023-08-24T12:20:40;29.40;99.90
14053;DHT22;7101;51.600;7.310;2023-08-24T12:23:10;29.60;99.90
14053;DHT22;7101;51.600;7.310;2023-08-24T12:25:37;29.90;99.90
14053;DHT22;7101;51.600;7.310;2023-08-24T12:28:13;30.00;99.90
14053;DHT22;7101;51.600;7.310;2023-08-24T12:30:48;30.20;99.90
14053;DHT22;7101;51.600;7.310;2023-08-24T12:33:26;30.10;99.90
14053;DHT22;7101;51.600;7.310;2023-08-24T12:35:57;30.10;99.90
14053;DHT22;7101;51.600;7.310;2023-08-24T12:38:25;30.20;99.90
14053;DHT22;7101;51.600;7.310;2023-08-24T12:40:52;30.00;99.90
14053;DHT22;7101;51.600;7.310;2023-08-24T12:43:21;29.80;99.90
14053;DHT22;7101;51.600;7.310;2023-08-24T12:45:49;29.70;99.90
14053;DHT22;7101;51.600;7.310;2023-08-24T12:48:18;29.70;99.90
14053;DHT22;7101;51.600;7.310;2023-08-24T12:50:45;29.80;99.90
14053;DHT22;7101;51.600;7.310;2023-08-24T12:53:12;29.80;99.90
14053;DHT22;7101;51.600;7.310;2023-08-24T12:55:39;29.90;99.90
14053;DHT22;7101;51.600;7.310;2023-08-24T12:58:06;29.70;99.90
14053;DHT22;7101;51.600;7.310;2023-08-24T13:00:35;29.40;99.90
14053;DHT22;7101;51.600;7.310;2023-08-24T13:03:02;29.40;99.90
14053;DHT22;7101;51.600;7.310;2023-08-24T13:05:29;29.60;99.90
14053;DHT22;7101;51.600;7.310;2023-08-24T13:07:56;29.40;99.90
14053;DHT22;7101;51.600;7.310;2023-08-24T13:10:23;29.30;99.90
14053;DHT22;7101;51.600;7.310;2023-08-24T13:12:51;29.10;99.90
14053;DHT22;7101;51.600;7.310;2023-08-24T13:15:18;28.80;99.90
14053;DHT22;7101;51.600;7.310;2023-08-24T13:17:47;28.60;99.90
14053;DHT22;7101;51.600;7.310;2023-08-24T13:20:15;28.50;99.90
14053;DHT22;7101;51.600;7.310;2023-08-24T13:22:42;28.20;99.90
14053;DHT22;7101;51.600;7.310;2023-08-24T13:25:10;28.00;99.90
14053;DHT22;7101;51.600;7.310;2023-08-24T13:27:37;27.80;99.90
14053;DHT22;7101;51.600;7.310;2023-08-24T13:30:06;27.50;99.90
14053;DHT22;7101;51.600;7.310;2023-08-24T13:32:33;27.20;99.90
14053;DHT22;7101;51.600;7.310;2023-08-24T13:35:02;26.80;99.90
14053;DHT22;7101;51.600;7.310;2023-08-24T13:37:29;26.70;99.90
14053;DHT22;7101;51.600;7.310;2023-08-24T13:39:58;26.70;99.90
14053;DHT22;7101;51.600;7.310;2023-08-24T13:42:25;26.60;99.90
14053;DHT22;7101;51.600;7.310;2023-08-24T13:44:52;26.70;99.90
14053;DHT22;7101;51.600;7.310;2023-08-24T13:47:19;26.70;99.90
14053;DHT22;7101;51.600;7.310;2023-08-24T13:49:47;27.00;99.90
14053;DHT22;7101;51.600;7.310;2023-08-24T13:52:15;27.30;99.90
14053;DHT22;7101;51.600;7.310;2023-08-24T13:54:44;27.60;99.90
14053;DHT22;7101;51.600;7.310;2023-08-24T13:57:11;28.00;99.90
14053;DHT22;7101;51.600;7.310;2023-08-24T13:59:38;28.30;99.90
14053;DHT22;7101;51.600;7.310;2023-08-24T14:02:06;28.70;99.90
14053;DHT22;7101;51.600;7.310;2023-08-24T14:04:34;28.80;99.90
14053;DHT22;7101;51.600;7.310;2023-08-24T14:07:02;29.00;99.90
14053;DHT22;7101;51.600;7.310;2023-08-24T14:09:30;29.00;99.90
14053;DHT22;7101;51.600;7.310;2023-08-24T14:11:58;29.00;99.90
14053;DHT22;7101;51.600;7.310;2023-08-24T14:14:31;29.00;99.90
14053;DHT22;7101;51.600;7.310;2023-08-24T14:16:58;29.00;99.90
14053;DHT22;7101;51.600;7.310;2023-08-24T14:19:25;29.00;99.90
14053;DHT22;7101;51.600;7.310;2023-08-24T14:21:52;28.90;99.90
14053;DHT22;7101;51.600;7.310;2023-08-24T14:24:19;28.60;99.90
14053;DHT22;7101;51.600;7.310;2023-08-24T14:26:49;28.70;99.90
14053;DHT22;7101;51.600;7.310;2023-08-24T14:29:17;28.50;99.90
14053;DHT22;7101;51.600;7.310;2023-08-24T14:31:44;28.40;99.90
14053;DHT22;7101;51.600;7.310;2023-08-24T14:34:12;28.30;99.90
14053;DHT22;7101;51.600;7.310;2023-08-24T14:36:39;28.30;99.90
14053;DHT22;7101;51.600;7.310;2023-08-24T14:39:06;28.40;99.90
14053;DHT22;7101;51.600;7.310;2023-08-24T14:41:33;28.60;99.90
14053;DHT22;7101;51.600;7.310;2023-08-24T14:44:01;28.40;99.90
14053;DHT22;7101;51.600;7.310;2023-08-24T14:46:28;28.30;99.90
14053;DHT22;7101;51.600;7.310;2023-08-24T14:48:55;28.30;99.90
14053;DHT22;7101;51.600;7.310;2023-08-24T14:51:22;28.10;99.90
14053;DHT22;7101;51.600;7.310;2023-08-24T14:53:49;27.90;99.90
14053;DHT22;7101;51.600;7.310;2023-08-24T14:56:16;27.80;99.90
14053;DHT22;7101;51.600;7.310;2023-08-24T14:58:43;27.90;99.90
14053;DHT22;7101;51.600;7.310;2023-08-24T15:01:12;27.80;99.90
14053;DHT22;7101;51.600;7.310;2023-08-24T15:03:39;27.80;99.90
14053;DHT22;7101;51.600;7.310;2023-08-24T15:06:06;27.90;99.90
14053;DHT22;7101;51.600;7.310;2023-08-24T15:08:35;27.50;99.90
14053;DHT22;7101;51.600;7.310;2023-08-24T15:11:02;27.40;99.90
14053;DHT22;7101;51.600;7.310;2023-08-24T15:13:30;27.10;99.90
14053;DHT22;7101;51.600;7.310;2023-08-24T15:15:58;27.20;99.90
14053;DHT22;7101;51.600;7.310;2023-08-24T15:18:26;26.90;99.90
14053;DHT22;7101;51.600;7.310;2023-08-24T15:20:54;26.80;99.90
14053;DHT22;7101;51.600;7.310;2023-08-24T15:23:23;26.70;99.90
14053;DHT22;7101;51.600;7.310;2023-08-24T15:25:50;26.60;99.90
14053;DHT22;7101;51.600;7.310;2023-08-24T15:28:18;26.50;99.90
14053;DHT22;7101;51.600;7.310;2023-08-24T15:30:45;26.50;99.90
14053;DHT22;7101;51.600;7.310;2023-08-24T15:33:12;26.40;99.90
14053;DHT22;7101;51.600;7.310;2023-08-24T15:35:41;26.30;99.90
14053;DHT22;7101;51.600;7.310;2023-08-24T15:38:08;26.40;99.90
14053;DHT22;7101;51.600;7.310;2023-08-24T15:40:35;26.30;99.90
14053;DHT22;7101;51.600;7.310;2023-08-24T15:43:03;26.20;99.90
14053;DHT22;7101;51.600;7.310;2023-08-24T15:45:33;26.10;99.90
14053;DHT22;7101;51.600;7.310;2023-08-24T15:48:00;25.90;99.90
14053;DHT22;7101;51.600;7.310;2023-08-24T15:50:27;25.60;99.90
14053;DHT22;7101;51.600;7.310;2023-08-24T15:52:56;25.60;99.90
14053;DHT22;7101;51.600;7.310;2023-08-24T15:55:28;25.50;99.90